createdAt,value
2023-11-18T00:01:53.881Z,14.75
2023-11-18T00:04:23.365Z,14.00
2023-11-18T00:09:26.045Z,15.05
2023-11-18T00:11:56.992Z,12.93
2023-11-18T00:14:26.150Z,14.02
2023-11-18T00:16:55.779Z,12.48
2023-11-18T00:19:25.120Z,12.23
2023-11-18T00:24:23.993Z,12.07
2023-11-18T00:26:56.463Z,12.32
2023-11-18T00:29:26.661Z,11.25
2023-11-18T00:31:56.900Z,12.00
2023-11-18T00:34:26.181Z,11.07
2023-11-18T00:36:55.578Z,12.77
2023-11-18T00:39:24.849Z,12.40
2023-11-18T00:44:28.422Z,12.50
2023-11-18T00:46:58.953Z,12.95
2023-11-18T00:49:28.226Z,12.90
2023-11-18T00:51:57.774Z,12.73
2023-11-18T00:54:28.081Z,13.52
2023-11-18T00:56:59.197Z,11.85
2023-11-18T00:59:28.941Z,12.73
2023-11-18T01:01:58.680Z,13.18
2023-11-18T01:04:28.047Z,12.07
2023-11-18T01:06:59.253Z,13.18
2023-11-18T01:09:29.310Z,13.23
2023-11-18T01:12:07.998Z,11.38
2023-11-18T01:14:40.323Z,11.90
2023-11-18T01:17:11.472Z,11.75
2023-11-18T01:19:40.944Z,10.63
2023-11-18T01:22:12.385Z,10.65
2023-11-18T01:24:42.092Z,10.05
2023-11-18T01:27:13.130Z,11.30
2023-11-18T01:29:42.496Z,10.57
2023-11-18T01:32:13.125Z,8.95
2023-11-18T01:34:44.748Z,9.88
2023-11-18T01:37:14.402Z,10.45
2023-11-18T01:39:43.939Z,11.25
2023-11-18T01:42:15.084Z,11.57
2023-11-18T01:44:44.351Z,11.13
2023-11-18T01:47:14.029Z,10.25
2023-11-18T01:49:44.730Z,10.25
2023-11-18T01:52:14.380Z,10.77
2023-11-18T01:54:46.020Z,10.65
2023-11-18T01:57:17.289Z,9.88
2023-11-18T01:59:46.552Z,10.18
2023-11-18T02:02:16.481Z,8.68
2023-11-18T02:07:16.560Z,7.53
2023-11-18T02:09:46.991Z,8.63
2023-11-18T02:12:29.402Z,7.72
2023-11-18T02:15:02.613Z,8.48
2023-11-18T02:17:34.012Z,9.43
2023-11-18T02:20:07.376Z,8.73
2023-11-18T02:22:37.272Z,9.27
2023-11-18T02:25:11.322Z,8.85
2023-11-18T02:27:42.338Z,8.98
2023-11-18T02:30:14.279Z,8.57
2023-11-18T02:32:55.010Z,9.40
2023-11-18T02:35:28.083Z,8.95
2023-11-18T02:37:59.745Z,8.65
2023-11-18T02:40:34.458Z,8.93
2023-11-18T02:43:07.278Z,7.93
2023-11-18T02:45:38.364Z,7.72
2023-11-18T02:48:08.854Z,7.95
2023-11-18T02:50:39.165Z,7.55
2023-11-18T02:53:10.770Z,7.55
2023-11-18T02:55:42.376Z,7.60
2023-11-18T02:58:13.238Z,7.28
2023-11-18T03:00:42.420Z,7.55
2023-11-18T03:03:12.181Z,7.38
2023-11-18T03:05:41.673Z,8.45
2023-11-18T03:08:12.755Z,7.57
2023-11-18T03:10:45.574Z,7.65
2023-11-18T03:13:16.504Z,8.65
2023-11-18T03:15:46.143Z,7.70
2023-11-18T03:18:16.511Z,7.50
2023-11-18T03:20:46.533Z,7.45
2023-11-18T03:23:15.932Z,9.95
2023-11-18T03:25:45.438Z,9.43
2023-11-18T03:31:19.337Z,7.40
2023-11-18T03:33:48.903Z,7.60
2023-11-18T03:36:19.175Z,8.68
2023-11-18T03:38:49.431Z,7.72
2023-11-18T03:41:18.801Z,8.25
2023-11-18T03:43:50.153Z,9.45
2023-11-18T03:46:19.472Z,7.47
2023-11-18T03:48:48.945Z,6.57
2023-11-18T03:51:18.884Z,7.38
2023-11-18T03:53:48.745Z,6.47
2023-11-18T03:56:20.627Z,9.27
2023-11-18T03:58:52.310Z,7.60
2023-11-18T04:01:23.578Z,7.93
2023-11-18T04:03:53.548Z,7.20
2023-11-18T04:06:25.581Z,8.05
2023-11-18T04:08:55.077Z,7.22
2023-11-18T04:11:24.869Z,7.45
2023-11-18T04:13:55.680Z,8.45
2023-11-18T04:16:24.803Z,7.53
2023-11-18T04:18:54.418Z,7.15
2023-11-18T04:21:23.631Z,7.75
2023-11-18T04:23:53.193Z,6.78
2023-11-18T04:26:22.364Z,6.97
2023-11-18T04:28:51.932Z,7.05
2023-11-18T04:31:22.705Z,7.13
2023-11-18T04:33:52.230Z,8.35
2023-11-18T04:36:23.278Z,7.20
2023-11-18T04:38:52.999Z,8.15
2023-11-18T04:41:22.214Z,8.18
2023-11-18T04:43:52.058Z,8.93
2023-11-18T04:46:23.167Z,8.07
2023-11-18T04:48:54.616Z,7.03
2023-11-18T04:51:24.837Z,8.93
2023-11-18T04:53:54.590Z,7.13
2023-11-18T04:56:24.269Z,9.15
2023-11-18T04:58:53.885Z,7.35
2023-11-18T05:01:24.484Z,7.50
2023-11-18T05:03:54.347Z,7.85
2023-11-18T05:06:23.936Z,8.25
2023-11-18T05:08:53.387Z,9.55
2023-11-18T05:11:22.741Z,9.13
2023-11-18T05:16:21.271Z,7.70
2023-11-18T05:18:52.377Z,8.40
2023-11-18T05:21:21.670Z,7.07
2023-11-18T05:23:52.122Z,8.38
2023-11-18T05:26:21.243Z,7.72
2023-11-18T05:28:51.422Z,8.32
2023-11-18T05:31:20.599Z,8.35
2023-11-18T05:33:56.579Z,8.38
2023-11-18T05:36:29.344Z,9.45
2023-11-18T05:38:59.327Z,8.55
2023-11-18T05:41:31.823Z,8.43
2023-11-18T05:44:01.855Z,9.90
2023-11-18T05:46:31.612Z,8.07
2023-11-18T05:49:08.871Z,9.57
2023-11-18T05:51:39.016Z,9.82
2023-11-18T05:54:08.948Z,11.05
2023-11-18T05:56:38.508Z,8.45
2023-11-18T06:01:38.676Z,8.65
2023-11-18T06:04:11.279Z,8.32
2023-11-18T06:06:40.713Z,9.38
2023-11-18T06:11:48.321Z,8.40
2023-11-18T06:14:19.462Z,9.27
2023-11-18T06:16:51.651Z,9.63
2023-11-18T06:19:22.606Z,9.52
2023-11-18T06:21:51.796Z,8.25
2023-11-18T06:24:22.799Z,8.48
2023-11-18T06:26:53.125Z,9.57
2023-11-18T06:29:23.053Z,8.80
2023-11-18T06:31:52.493Z,9.48
2023-11-18T06:34:23.677Z,10.38
2023-11-18T06:36:52.810Z,9.05
2023-11-18T06:39:27.028Z,7.72
2023-11-18T06:41:57.247Z,8.95
2023-11-18T06:44:27.179Z,10.75
2023-11-18T06:46:56.618Z,10.70
2023-11-18T06:51:56.811Z,8.13
2023-11-18T06:54:28.430Z,10.35
2023-11-18T06:56:57.636Z,10.13
2023-11-18T06:59:27.071Z,8.80
2023-11-18T07:01:56.597Z,9.77
2023-11-18T07:06:57.596Z,10.23
2023-11-18T07:09:27.300Z,9.48
2023-11-18T07:11:57.439Z,9.90
2023-11-18T07:14:28.340Z,9.93
2023-11-18T07:16:57.453Z,10.80
2023-11-18T07:19:30.105Z,10.07
2023-11-18T07:22:09.832Z,11.25
2023-11-18T07:24:40.253Z,10.35
2023-11-18T07:27:12.678Z,12.02
2023-11-18T07:29:43.149Z,10.68
2023-11-18T07:32:12.447Z,10.85
2023-11-18T07:34:43.285Z,10.30
2023-11-18T07:37:14.251Z,9.82
2023-11-18T07:39:46.225Z,9.80
2023-11-18T07:42:16.127Z,11.68
2023-11-18T07:44:45.825Z,10.25
2023-11-18T07:47:17.481Z,11.73
2023-11-18T07:49:49.353Z,11.00
2023-11-18T07:52:18.722Z,11.63
2023-11-18T07:54:52.313Z,13.27
2023-11-18T07:57:24.987Z,13.13
2023-11-18T07:59:56.622Z,13.57
2023-11-18T08:02:26.456Z,13.80
2023-11-18T08:04:57.934Z,13.23
2023-11-18T08:07:27.543Z,14.73
2023-11-18T08:09:56.964Z,15.02
2023-11-18T08:12:26.384Z,12.93
2023-11-18T08:17:26.648Z,13.57
2023-11-18T08:19:59.097Z,14.77
2023-11-18T08:22:29.235Z,12.27
2023-11-18T08:25:00.241Z,16.17
2023-11-18T08:27:29.697Z,14.48
2023-11-18T08:29:59.642Z,13.68
2023-11-18T08:35:00.010Z,14.45
2023-11-18T08:37:29.421Z,15.18
2023-11-18T08:42:29.104Z,15.37
2023-11-18T08:45:02.289Z,15.73
2023-11-18T08:47:33.665Z,14.65
2023-11-18T08:50:13.221Z,13.93
2023-11-18T08:52:44.849Z,12.32
2023-11-18T08:55:20.818Z,15.13
2023-11-18T08:57:59.620Z,13.65
2023-11-18T09:00:49.376Z,14.77
2023-11-18T09:03:26.226Z,16.58
2023-11-18T09:06:00.818Z,15.57
2023-11-18T09:08:33.597Z,14.43
2023-11-18T09:11:06.479Z,15.07
2023-11-18T09:13:37.154Z,14.88
2023-11-18T09:16:10.095Z,15.80
2023-11-18T09:18:43.345Z,15.38
2023-11-18T09:21:17.149Z,17.02
2023-11-18T09:23:49.289Z,17.05
2023-11-18T09:26:19.297Z,15.90
2023-11-18T09:28:51.101Z,14.57
2023-11-18T09:31:24.015Z,15.80
2023-11-18T09:33:54.634Z,13.23
2023-11-18T09:36:25.598Z,14.82
2023-11-18T09:38:55.036Z,16.63
2023-11-18T09:41:29.070Z,14.00
2023-11-18T09:44:03.854Z,16.67
2023-11-18T09:46:36.122Z,17.35
2023-11-18T09:49:17.298Z,15.20
2023-11-18T09:51:49.244Z,17.13
2023-11-18T09:54:30.581Z,16.35
2023-11-18T09:57:10.757Z,16.50
2023-11-18T09:59:54.619Z,16.67
2023-11-18T10:02:27.043Z,18.30
2023-11-18T10:04:59.783Z,18.58
2023-11-18T10:07:34.307Z,18.80
2023-11-18T10:10:06.179Z,16.08
2023-11-18T10:12:39.165Z,15.43
2023-11-18T10:15:13.754Z,16.90
2023-11-18T10:17:56.408Z,14.40
2023-11-18T10:20:46.040Z,12.52
2023-11-18T10:23:21.148Z,12.35
2023-11-18T10:25:51.786Z,12.02
2023-11-18T10:28:29.075Z,10.52
2023-11-18T10:31:00.228Z,10.30
2023-11-18T10:33:32.081Z,8.95
2023-11-18T10:36:04.980Z,10.73
2023-11-18T10:38:44.727Z,9.18
2023-11-18T10:41:14.429Z,9.75
2023-11-18T10:43:45.700Z,8.48
2023-11-18T10:46:15.897Z,7.95
2023-11-18T10:48:48.778Z,9.05
2023-11-18T10:51:21.104Z,8.27
2023-11-18T10:54:00.190Z,7.72
2023-11-18T10:56:30.677Z,8.32
2023-11-18T10:59:01.472Z,7.90
2023-11-18T11:01:33.356Z,8.75
2023-11-18T11:04:05.956Z,7.75
2023-11-18T11:06:36.131Z,8.18
2023-11-18T11:09:15.585Z,8.25
2023-11-18T11:11:50.285Z,9.55
2023-11-18T11:14:22.691Z,8.82
2023-11-18T11:16:56.909Z,8.50
2023-11-18T11:19:30.880Z,7.45
2023-11-18T11:22:08.438Z,9.00
2023-11-18T11:25:00.925Z,8.55
2023-11-18T11:27:41.178Z,9.13
2023-11-18T11:30:19.635Z,8.20
2023-11-18T11:32:55.205Z,9.13
2023-11-18T11:35:31.754Z,9.60
2023-11-18T11:38:11.051Z,10.07
2023-11-18T11:40:43.553Z,11.38
2023-11-18T11:43:17.035Z,11.10
2023-11-18T11:45:48.672Z,9.60
2023-11-18T11:48:27.436Z,9.50
2023-11-18T11:51:16.296Z,10.63
2023-11-18T11:53:50.085Z,13.05
2023-11-18T11:56:25.484Z,12.80
2023-11-18T11:58:55.113Z,13.02
2023-11-18T12:04:08.065Z,11.38
2023-11-18T12:06:45.469Z,12.13
2023-11-18T12:09:20.851Z,13.32
2023-11-18T12:11:52.323Z,12.23
2023-11-18T12:14:39.293Z,12.32
2023-11-18T12:17:10.982Z,11.13
2023-11-18T12:19:49.419Z,13.32
2023-11-18T12:22:26.082Z,11.70
2023-11-18T12:25:38.332Z,10.90
2023-11-18T12:28:16.165Z,9.98
2023-11-18T12:30:57.478Z,12.88
2023-11-18T12:33:30.052Z,10.90
2023-11-18T12:36:31.473Z,10.65
2023-11-18T12:39:45.671Z,10.43
2023-11-18T12:42:37.938Z,10.38
2023-11-18T12:45:37.737Z,9.18
2023-11-18T12:48:13.497Z,10.60
2023-11-18T12:50:47.569Z,8.70
2023-11-18T12:53:19.749Z,9.93
2023-11-18T12:55:54.578Z,11.38
2023-11-18T12:58:27.831Z,10.50
2023-11-18T13:01:01.481Z,11.82
2023-11-18T13:03:31.059Z,9.52
2023-11-18T13:06:02.100Z,11.13
2023-11-18T13:08:31.447Z,10.50
2023-11-18T13:11:06.242Z,10.65
2023-11-18T13:13:37.146Z,10.20
2023-11-18T13:16:10.098Z,10.85
2023-11-18T13:18:48.693Z,12.90
2023-11-18T13:21:18.901Z,12.73
2023-11-18T13:23:53.859Z,10.68
2023-11-18T13:26:23.982Z,11.95
2023-11-18T13:31:23.984Z,12.10
2023-11-18T13:33:54.607Z,11.63
2023-11-18T13:36:25.840Z,11.35
2023-11-18T13:38:55.946Z,11.30
2023-11-18T13:41:33.259Z,12.10
2023-11-18T13:44:04.022Z,11.52
2023-11-18T13:46:35.021Z,12.15
2023-11-18T13:49:07.156Z,12.25
2023-11-18T13:51:37.716Z,11.57
2023-11-18T13:54:08.201Z,13.30
2023-11-18T13:56:37.638Z,16.73
2023-11-18T13:59:08.022Z,17.38
2023-11-18T14:01:39.180Z,11.77
2023-11-18T14:04:10.312Z,13.32
2023-11-18T14:06:41.035Z,11.23
2023-11-18T14:09:12.600Z,13.13
2023-11-18T14:11:42.529Z,13.68
2023-11-18T14:14:11.662Z,13.70
2023-11-18T14:16:42.620Z,19.63
2023-11-18T14:19:12.311Z,20.08
2023-11-18T14:21:42.765Z,17.00
2023-11-18T14:26:43.118Z,16.90
2023-11-18T14:29:13.880Z,16.05
2023-11-18T14:31:45.151Z,16.73
2023-11-18T14:34:14.978Z,16.40
2023-11-18T14:36:46.026Z,16.20
2023-11-18T14:39:15.963Z,16.67
2023-11-18T14:41:45.516Z,17.13
2023-11-18T14:44:14.694Z,17.23
2023-11-18T14:49:16.461Z,17.42
2023-11-18T14:51:45.919Z,18.95
2023-11-18T14:54:15.131Z,17.50
2023-11-18T14:56:44.747Z,19.00
2023-11-18T14:59:13.947Z,18.75
2023-11-18T15:01:45.402Z,17.65
2023-11-18T15:04:16.193Z,16.80
2023-11-18T15:06:46.407Z,17.98
2023-11-18T15:09:15.778Z,17.63
2023-11-18T15:11:46.826Z,15.98
2023-11-18T15:14:16.393Z,17.13
2023-11-18T15:16:47.862Z,15.40
2023-11-18T15:19:19.106Z,16.40
2023-11-18T15:21:48.657Z,14.45
2023-11-18T15:24:18.726Z,17.65
2023-11-18T15:26:51.025Z,17.75
2023-11-18T15:29:21.305Z,16.58
2023-11-18T15:31:51.047Z,18.55
2023-11-18T15:34:22.361Z,17.70
2023-11-18T15:36:52.762Z,18.55
2023-11-18T15:41:51.430Z,19.17
2023-11-18T15:44:21.240Z,19.95
2023-11-18T15:46:51.767Z,22.55
2023-11-18T15:49:23.753Z,23.33
2023-11-18T15:51:53.617Z,22.83
2023-11-18T15:54:22.877Z,23.95
2023-11-18T15:56:52.298Z,25.95
2023-11-18T15:59:21.466Z,23.02
2023-11-18T16:01:50.826Z,23.25
2023-11-18T16:04:20.013Z,22.73
2023-11-18T16:06:51.252Z,24.17
2023-11-18T16:09:21.788Z,21.88
2023-11-18T16:11:52.014Z,23.48
2023-11-18T16:16:52.251Z,26.83
2023-11-18T16:19:23.121Z,27.75
2023-11-18T16:21:54.465Z,28.20
2023-11-18T16:24:23.598Z,28.30
2023-11-18T16:26:53.566Z,23.13
2023-11-18T16:29:22.685Z,22.63
2023-11-18T16:31:52.567Z,23.75
2023-11-18T16:34:23.570Z,24.38
2023-11-18T16:36:57.867Z,20.05
2023-11-18T16:39:27.826Z,20.38
2023-11-18T16:41:57.335Z,20.13
2023-11-18T16:44:26.404Z,21.67
2023-11-18T16:46:56.871Z,21.65
2023-11-18T16:49:27.790Z,19.27
2023-11-18T16:52:00.720Z,20.02
2023-11-18T16:54:39.007Z,19.58
2023-11-18T16:57:10.522Z,19.23
2023-11-18T16:59:40.492Z,21.30
2023-11-18T17:04:41.388Z,20.65
2023-11-18T17:07:15.118Z,18.92
2023-11-18T17:09:44.497Z,20.60
2023-11-18T17:12:13.866Z,21.77
2023-11-18T17:14:43.390Z,21.83
2023-11-18T17:17:12.991Z,18.65
2023-11-18T17:19:42.197Z,21.27
2023-11-18T17:22:13.481Z,19.40
2023-11-18T17:24:43.246Z,19.48
2023-11-18T17:27:13.233Z,18.50
2023-11-18T17:29:42.398Z,17.05
2023-11-18T17:32:12.455Z,15.77
2023-11-18T17:34:43.883Z,20.13
2023-11-18T17:37:15.371Z,18.77
2023-11-18T17:39:44.792Z,17.80
2023-11-18T17:42:14.211Z,14.60
2023-11-18T17:44:43.583Z,18.67
2023-11-18T17:47:13.064Z,21.42
2023-11-18T17:49:42.446Z,21.05
2023-11-18T17:52:13.556Z,20.30
2023-11-18T17:54:43.613Z,19.75
2023-11-18T17:57:16.209Z,20.55
2023-11-18T17:59:46.089Z,23.80
2023-11-18T18:02:16.916Z,22.65
2023-11-18T18:04:47.203Z,20.48
2023-11-18T18:07:18.295Z,20.60
2023-11-18T18:09:47.887Z,19.55
2023-11-18T18:12:17.274Z,17.33
2023-11-18T18:14:46.835Z,18.00
2023-11-18T18:19:48.911Z,17.45
2023-11-18T18:22:19.878Z,18.02
2023-11-18T18:24:49.061Z,19.40
2023-11-18T18:27:20.676Z,17.70
2023-11-18T18:29:50.687Z,18.70
2023-11-18T18:32:22.141Z,20.10
2023-11-18T18:34:52.746Z,20.85
2023-11-18T18:37:27.368Z,19.20
2023-11-18T18:39:57.291Z,19.35
2023-11-18T18:42:27.408Z,19.02
2023-11-18T18:44:57.705Z,21.00
2023-11-18T18:47:29.788Z,20.52
2023-11-18T18:50:02.639Z,19.52
2023-11-18T18:52:35.633Z,20.10
2023-11-18T18:55:07.636Z,19.65
2023-11-18T18:57:37.749Z,19.20
2023-11-18T19:00:13.422Z,20.25
2023-11-18T19:02:44.248Z,20.55
2023-11-18T19:05:14.630Z,22.88
2023-11-18T19:07:47.727Z,25.45
2023-11-18T19:10:17.738Z,24.63
2023-11-18T19:12:49.791Z,29.23
2023-11-18T19:15:20.088Z,28.45
2023-11-18T19:17:52.314Z,27.23
2023-11-18T19:20:22.680Z,29.25
2023-11-18T19:22:55.520Z,27.08
2023-11-18T19:25:24.824Z,29.42
2023-11-18T19:27:54.236Z,29.17
2023-11-18T19:30:28.000Z,25.05
2023-11-18T19:32:58.176Z,23.85
2023-11-18T19:35:30.808Z,22.58
2023-11-18T19:38:07.874Z,21.92
2023-11-18T19:40:38.578Z,19.98
2023-11-18T19:45:40.180Z,20.08
2023-11-18T19:48:09.703Z,21.80
2023-11-18T19:50:40.621Z,22.17
2023-11-18T19:53:13.983Z,23.45
2023-11-18T19:55:45.539Z,23.52
2023-11-18T19:58:16.379Z,23.80
2023-11-18T20:00:46.273Z,23.20
2023-11-18T20:03:17.108Z,23.13
2023-11-18T20:05:46.545Z,23.58
2023-11-18T20:08:18.384Z,24.70
2023-11-18T20:10:48.581Z,27.73
2023-11-18T20:13:19.066Z,31.50
2023-11-18T20:15:48.938Z,31.98
2023-11-18T20:18:19.825Z,32.95
2023-11-18T20:20:55.127Z,33.72
2023-11-18T20:23:28.808Z,33.78
2023-11-18T20:25:58.523Z,32.22
2023-11-18T20:30:57.063Z,36.43
2023-11-18T20:35:56.318Z,30.55
2023-11-18T20:38:28.753Z,32.10
2023-11-18T20:40:59.316Z,33.03
2023-11-18T20:43:31.144Z,34.08
2023-11-18T20:46:00.357Z,31.45
2023-11-18T20:48:33.149Z,32.58
2023-11-18T20:51:06.328Z,28.67
2023-11-18T20:53:38.115Z,29.45
2023-11-18T20:56:10.840Z,28.88
2023-11-18T20:58:42.590Z,33.83
2023-11-18T21:01:13.928Z,34.47
2023-11-18T21:03:44.820Z,34.50
2023-11-18T21:11:27.260Z,25.75
2023-11-18T21:13:57.294Z,21.10
2023-11-18T21:16:28.985Z,21.73
2023-11-18T21:19:02.758Z,19.23
2023-11-18T21:21:32.101Z,22.23
2023-11-18T21:26:33.960Z,18.42
2023-11-18T21:29:03.626Z,19.50
2023-11-18T21:31:34.561Z,19.00
2023-11-18T21:34:05.797Z,18.35
2023-11-18T21:36:38.930Z,21.88
2023-11-18T21:39:16.472Z,20.95
2023-11-18T21:41:46.381Z,19.40
2023-11-18T21:44:22.061Z,20.23
2023-11-18T21:46:52.091Z,18.67
2023-11-18T21:49:21.702Z,20.13
2023-11-18T21:51:51.436Z,16.88
2023-11-18T21:56:51.312Z,16.45
2023-11-18T21:59:20.711Z,16.60
2023-11-18T22:01:50.440Z,17.38
2023-11-18T22:04:21.514Z,17.73
2023-11-18T22:06:53.550Z,17.10
2023-11-18T22:09:27.341Z,16.10
2023-11-18T22:11:57.259Z,18.75
2023-11-18T22:14:27.396Z,17.35
2023-11-18T22:16:59.107Z,17.60
2023-11-18T22:19:29.795Z,17.13
2023-11-18T22:21:58.962Z,18.83
2023-11-18T22:24:30.366Z,16.65
2023-11-18T22:26:59.555Z,16.85
2023-11-18T22:29:30.260Z,19.30
2023-11-18T22:31:59.615Z,17.77
2023-11-18T22:34:29.192Z,17.33
2023-11-18T22:36:58.485Z,16.08
2023-11-18T22:41:59.282Z,15.40
2023-11-18T22:44:28.691Z,16.73
2023-11-18T22:46:59.170Z,18.42
2023-11-18T22:49:28.980Z,20.48
2023-11-18T22:51:58.450Z,18.48
2023-11-18T22:56:58.442Z,16.83
2023-11-18T22:59:27.838Z,17.77
2023-11-18T23:01:57.730Z,17.15
2023-11-18T23:04:29.210Z,17.63
2023-11-18T23:06:58.779Z,16.50
2023-11-18T23:11:58.666Z,17.88
2023-11-18T23:14:29.787Z,17.25
2023-11-18T23:17:08.212Z,17.90
2023-11-18T23:19:47.796Z,17.83
2023-11-18T23:22:20.583Z,17.15
2023-11-18T23:24:51.673Z,19.60
2023-11-18T23:27:20.961Z,17.42
2023-11-18T23:29:50.648Z,19.42
2023-11-18T23:32:20.701Z,18.20
2023-11-18T23:34:50.505Z,19.48
2023-11-18T23:37:20.373Z,18.67
2023-11-18T23:39:55.331Z,21.52
2023-11-18T23:42:24.729Z,19.85
2023-11-18T23:44:54.462Z,19.85
2023-11-18T23:47:23.765Z,18.35
2023-11-18T23:52:25.330Z,18.63
2023-11-18T23:54:56.298Z,18.38
2023-11-18T23:57:25.586Z,20.90
2023-11-18T23:59:56.865Z,20.50
